Time;durP1;ratioP1;P1;durP2;ratioP2;P2;SDS_P1;SDS_P2;PMS_P1;PMS_P2;Temp;Humidity;BMP_temperature;BMP_pressure;BME280_temperature;BME280_humidity;BME280_pressure;Samples;Min_cycle;Max_cycle;Signal;HPM_P1;HPM_P2
2023/10/16 00:02:30;;;;;;;1.88;1.33;;;;;;;;;;4950890;29;20042;-83
2023/10/16 00:05:18;;;;;;;4.05;1.40;;;;;;;;;;4969056;28;20034;-83
2023/10/16 00:08:07;;;;;;;2.90;1.63;;;;;;;;;;4962768;29;20018;-82
2023/10/16 00:10:55;;;;;;;3.38;1.52;;;;;;;;;;4945056;28;20418;-82
2023/10/16 00:13:40;;;;;;;2.53;1.60;;;;;;;;;;4938952;29;20038;-82
2023/10/16 00:16:28;;;;;;;2.47;1.50;;;;;;;;;;4939380;29;20019;-82
2023/10/16 00:19:13;;;;;;;2.47;1.92;;;;;;;;;;4937664;29;20461;-82
2023/10/16 00:22:00;;;;;;;3.90;1.25;;;;;;;;;;4933944;29;20027;-82
2023/10/16 00:24:48;;;;;;;2.17;1.30;;;;;;;;;;4941304;28;20029;-82
2023/10/16 00:27:33;;;;;;;4.05;1.52;;;;;;;;;;4936597;28;20122;-82
2023/10/16 00:30:19;;;;;;;3.83;1.95;;;;;;;;;;4935730;28;20492;-82
2023/10/16 00:33:10;;;;;;;1.98;1.52;;;;;;;;;;4941804;28;20039;-81
2023/10/16 00:35:55;;;;;;;2.80;1.50;;;;;;;;;;4938988;28;20106;-81
2023/10/16 00:38:41;;;;;;;4.20;1.30;;;;;;;;;;4938826;29;20023;-81
2023/10/16 00:41:28;;;;;;;2.20;1.13;;;;;;;;;;4947280;28;20038;-81
2023/10/16 00:44:17;;;;;;;2.55;1.60;;;;;;;;;;4930739;29;20035;-81
2023/10/16 00:47:05;;;;;;;2.42;1.48;;;;;;;;;;4937294;29;20019;-81
2023/10/16 00:49:51;;;;;;;2.87;1.43;;;;;;;;;;4938503;29;20089;-80
2023/10/16 00:52:36;;;;;;;2.60;1.65;;;;;;;;;;4941964;28;20042;-82
2023/10/16 00:55:21;;;;;;;2.63;1.70;;;;;;;;;;4956864;28;20123;-83
2023/10/16 00:58:07;;;;;;;2.13;1.30;;;;;;;;;;4936600;29;20138;-79
2023/10/16 01:00:52;;;;;;;2.58;1.60;;;;;;;;;;4939982;28;20023;-79
2023/10/16 01:03:38;;;;;;;2.38;1.15;;;;;;;;;;4945601;29;20031;-82
2023/10/16 01:06:41;;;;;;;1.75;1.30;;;;;;;;;;4937897;29;20112;-82
2023/10/16 01:09:26;;;;;;;2.75;1.27;;;;;;;;;;4923918;29;20032;-81
2023/10/16 01:12:11;;;;;;;2.72;1.40;;;;;;;;;;4938280;29;20023;-83
2023/10/16 01:14:57;;;;;;;5.90;1.95;;;;;;;;;;4938315;29;20099;-81
2023/10/16 01:17:43;;;;;;;2.67;1.15;;;;;;;;;;4936135;28;20051;-81
2023/10/16 01:20:28;;;;;;;2.08;1.25;;;;;;;;;;4915550;29;20036;-81
2023/10/16 01:23:15;;;;;;;2.72;1.27;;;;;;;;;;4919733;29;20031;-81
2023/10/16 01:26:01;;;;;;;2.25;1.20;;;;;;;;;;4922072;29;20023;-81
2023/10/16 01:28:46;;;;;;;5.18;1.70;;;;;;;;;;4919409;29;20490;-81
2023/10/16 01:31:31;;;;;;;4.28;1.95;;;;;;;;;;4918374;29;20115;-80
2023/10/16 01:34:17;;;;;;;4.93;1.63;;;;;;;;;;4928384;29;20037;-82
2023/10/16 01:37:08;;;;;;;3.13;1.50;;;;;;;;;;4921053;29;20498;-83
2023/10/16 01:39:54;;;;;;;3.53;1.60;;;;;;;;;;4923581;29;20038;-82
2023/10/16 01:42:39;;;;;;;2.55;1.67;;;;;;;;;;4923671;29;20059;-82
2023/10/16 01:45:27;;;;;;;5.53;1.58;;;;;;;;;;4917228;29;20031;-82
2023/10/16 01:48:12;;;;;;;1.77;1.27;;;;;;;;;;4919716;29;20040;-82
2023/10/16 01:50:57;;;;;;;5.15;1.92;;;;;;;;;;4919781;29;20094;-81
2023/10/16 01:53:43;;;;;;;3.42;1.73;;;;;;;;;;4916194;29;20034;-81
2023/10/16 01:56:28;;;;;;;2.53;1.58;;;;;;;;;;4918231;29;20035;-81
2023/10/16 01:59:13;;;;;;;2.15;1.40;;;;;;;;;;4912414;29;20031;-81
2023/10/16 02:01:59;;;;;;;3.53;1.80;;;;;;;;;;4920758;29;20382;-81
2023/10/16 02:04:44;;;;;;;3.70;1.70;;;;;;;;;;4921108;29;20534;-80
2023/10/16 02:07:33;;;;;;;3.33;1.58;;;;;;;;;;4925441;29;20039;-80
2023/10/16 02:10:24;;;;;;;2.75;1.27;;;;;;;;;;4924819;29;20101;-81
2023/10/16 02:13:10;;;;;;;2.70;1.30;;;;;;;;;;4917099;29;20393;-82
2023/10/16 02:15:55;;;;;;;2.28;1.67;;;;;;;;;;4920782;29;20604;-81
2023/10/16 02:18:41;;;;;;;6.15;1.67;;;;;;;;;;4919482;29;20111;-81
2023/10/16 02:21:26;;;;;;;2.72;1.40;;;;;;;;;;4918092;29;20091;-83
2023/10/16 02:24:11;;;;;;;3.20;1.50;;;;;;;;;;4930301;29;20481;-82
2023/10/16 02:26:56;;;;;;;4.60;1.50;;;;;;;;;;4918785;29;20103;-82
2023/10/16 02:29:52;;;;;;;4.07;1.88;;;;;;;;;;4919113;29;20039;-81
2023/10/16 02:32:38;;;;;;;3.38;1.40;;;;;;;;;;4916639;29;20110;-80
2023/10/16 02:35:23;;;;;;;3.83;1.55;;;;;;;;;;4918796;29;20114;-82
2023/10/16 02:38:12;;;;;;;5.07;1.55;;;;;;;;;;4926403;29;20087;-82
2023/10/16 02:41:01;;;;;;;3.15;1.55;;;;;;;;;;4918076;29;20037;-82
2023/10/16 02:43:48;;;;;;;2.55;1.58;;;;;;;;;;4929171;29;20039;-82
2023/10/16 02:46:36;;;;;;;5.50;1.40;;;;;;;;;;4923683;29;20062;-82
2023/10/16 02:49:22;;;;;;;1.88;1.27;;;;;;;;;;4919580;29;20130;-82
2023/10/16 02:52:07;;;;;;;3.17;1.58;;;;;;;;;;4937289;29;20090;-82
2023/10/16 02:54:56;;;;;;;2.10;1.13;;;;;;;;;;4917392;29;20024;-80
2023/10/16 02:57:42;;;;;;;1.30;1.15;;;;;;;;;;4921898;29;20059;-81
2023/10/16 03:00:34;;;;;;;2.90;1.40;;;;;;;;;;4921217;29;20036;-80
2023/10/16 03:03:21;;;;;;;3.58;1.52;;;;;;;;;;4915338;29;20023;-81
2023/10/16 03:06:08;;;;;;;1.52;1.42;;;;;;;;;;4922646;29;20023;-81
2023/10/16 03:09:18;;;;;;;3.88;1.30;;;;;;;;;;4927159;29;20063;-81
2023/10/16 03:12:08;;;;;;;1.92;1.20;;;;;;;;;;4921410;29;20496;-81
2023/10/16 03:14:58;;;;;;;2.10;1.60;;;;;;;;;;4917202;29;20034;-80
2023/10/16 03:17:43;;;;;;;2.90;1.33;;;;;;;;;;4934463;28;20505;-80
2023/10/16 03:20:35;;;;;;;3.28;1.52;;;;;;;;;;4950524;28;20627;-80
2023/10/16 03:23:20;;;;;;;2.75;1.63;;;;;;;;;;4947657;28;20027;-80
2023/10/16 03:26:05;;;;;;;4.72;1.52;;;;;;;;;;4952995;28;20019;-82
2023/10/16 03:29:02;;;;;;;3.45;1.98;;;;;;;;;;4950357;29;20031;-82
2023/10/16 03:31:47;;;;;;;7.40;1.58;;;;;;;;;;4946989;28;20117;-80
2023/10/16 03:34:32;;;;;;;3.95;1.77;;;;;;;;;;4955184;28;20027;-82
2023/10/16 03:37:24;;;;;;;4.60;1.60;;;;;;;;;;4949779;29;20027;-80
2023/10/16 03:40:12;;;;;;;2.92;1.65;;;;;;;;;;4949056;28;20035;-81
2023/10/16 03:42:58;;;;;;;4.07;1.35;;;;;;;;;;4954178;28;20042;-81
2023/10/16 03:45:43;;;;;;;3.08;1.60;;;;;;;;;;4962061;28;20358;-82
2023/10/16 03:48:28;;;;;;;2.42;1.20;;;;;;;;;;4954755;28;20413;-81
2023/10/16 03:51:16;;;;;;;3.55;1.90;;;;;;;;;;4944866;28;20022;-83
2023/10/16 03:54:02;;;;;;;4.28;1.63;;;;;;;;;;4958189;28;20034;-82
2023/10/16 03:56:47;;;;;;;2.70;1.58;;;;;;;;;;4954636;28;20466;-82
2023/10/16 03:59:33;;;;;;;3.25;1.58;;;;;;;;;;4951860;29;20532;-83
2023/10/16 04:02:23;;;;;;;2.20;0.98;;;;;;;;;;4955318;28;20082;-83
2023/10/16 04:05:29;;;;;;;3.95;1.73;;;;;;;;;;4952194;29;20082;-82
2023/10/16 04:08:14;;;;;;;4.38;2.00;;;;;;;;;;4953582;29;20078;-83
2023/10/16 04:11:02;;;;;;;3.50;1.30;;;;;;;;;;4949161;29;20031;-81
2023/10/16 04:13:52;;;;;;;5.32;1.55;;;;;;;;;;4953478;29;20722;-82
2023/10/16 04:16:49;;;;;;;1.83;1.38;;;;;;;;;;4952251;29;20031;-82
2023/10/16 04:19:47;;;;;;;2.90;1.58;;;;;;;;;;4927111;29;20569;-82
2023/10/16 04:22:44;;;;;;;2.22;1.63;;;;;;;;;;4918264;29;20031;-79
2023/10/16 04:25:45;;;;;;;3.92;1.73;;;;;;;;;;4921039;29;20028;-79
2023/10/16 04:28:39;;;;;;;3.45;1.65;;;;;;;;;;4919042;29;20551;-80
2023/10/16 04:32:20;;;;;;;3.78;1.83;;;;;;;;;;4921569;29;20032;-80
2023/10/16 04:43:08;;;;;;;5.57;1.88;;;;;;;;;;4915131;29;20031;-82
2023/10/16 04:46:07;;;;;;;5.20;2.17;;;;;;;;;;4912414;29;20078;-82
2023/10/16 04:48:58;;;;;;;4.68;2.28;;;;;;;;;;4911791;29;20035;-79
2023/10/16 04:51:52;;;;;;;3.28;1.98;;;;;;;;;;4920360;29;20035;-81
2023/10/16 04:54:58;;;;;;;2.78;1.73;;;;;;;;;;4925763;29;20034;-79
2023/10/16 04:57:53;;;;;;;5.53;2.20;;;;;;;;;;4924865;29;20024;-85
2023/10/16 05:00:56;;;;;;;5.15;2.40;;;;;;;;;;4922018;29;20027;-82
2023/10/16 05:15:41;;;;;;;4.80;2.17;;;;;;;;;;4923174;29;20039;-81
2023/10/16 06:16:46;;;;;;;6.45;3.00;;;;;;;;;;4941987;29;20062;-84
2023/10/16 06:19:32;;;;;;;5.57;3.58;;;;;;;;;;4952317;28;20071;-82
2023/10/16 06:22:17;;;;;;;6.47;3.28;;;;;;;;;;4955301;28;20039;-84
2023/10/16 06:25:09;;;;;;;5.30;2.63;;;;;;;;;;4950534;28;20079;-84
2023/10/16 06:27:55;;;;;;;6.40;2.58;;;;;;;;;;4946133;29;20058;-83
2023/10/16 06:30:41;;;;;;;9.77;3.08;;;;;;;;;;4950509;29;20033;-84
2023/10/16 06:33:28;;;;;;;6.65;3.35;;;;;;;;;;4964196;28;20027;-83
2023/10/16 06:36:13;;;;;;;6.50;3.55;;;;;;;;;;4956376;28;20031;-84
2023/10/16 06:39:06;;;;;;;8.43;3.78;;;;;;;;;;4950375;28;20031;-84
2023/10/16 06:41:54;;;;;;;4.38;2.65;;;;;;;;;;4951611;29;20551;-84
2023/10/16 06:44:42;;;;;;;7.40;3.57;;;;;;;;;;4964863;28;20058;-84
2023/10/16 06:47:37;;;;;;;7.03;3.38;;;;;;;;;;4962976;28;20035;-83
2023/10/16 06:53:10;;;;;;;7.93;3.85;;;;;;;;;;4951000;29;20027;-83
2023/10/16 06:55:55;;;;;;;5.50;3.30;;;;;;;;;;4945094;29;20031;-83
2023/10/16 06:58:41;;;;;;;5.30;2.90;;;;;;;;;;4950815;29;20039;-83
2023/10/16 07:01:26;;;;;;;7.47;3.55;;;;;;;;;;4951285;29;20031;-83
2023/10/16 07:04:11;;;;;;;7.53;4.13;;;;;;;;;;4968894;28;20031;-83
2023/10/16 07:06:57;;;;;;;8.38;3.65;;;;;;;;;;4950982;29;20086;-81
2023/10/16 07:09:49;;;;;;;9.52;5.15;;;;;;;;;;4950605;29;20058;-83
2023/10/16 07:12:53;;;;;;;6.65;3.70;;;;;;;;;;4920361;29;20023;-82
2023/10/16 07:15:38;;;;;;;6.95;3.58;;;;;;;;;;4951578;28;20034;-83
2023/10/16 07:18:24;;;;;;;6.32;3.55;;;;;;;;;;4941599;28;20066;-82
2023/10/16 07:21:10;;;;;;;5.15;3.15;;;;;;;;;;4955867;28;20023;-85
2023/10/16 07:23:55;;;;;;;9.32;4.18;;;;;;;;;;4954118;28;20020;-81
2023/10/16 07:26:41;;;;;;;8.88;4.43;;;;;;;;;;4943954;29;20066;-82
2023/10/16 07:29:29;;;;;;;6.45;3.63;;;;;;;;;;4953464;29;20031;-84
2023/10/16 07:32:14;;;;;;;5.68;3.10;;;;;;;;;;4957632;28;20039;-83
2023/10/16 07:34:59;;;;;;;5.90;3.60;;;;;;;;;;4954038;29;20484;-84
2023/10/16 07:37:48;;;;;;;5.88;3.25;;;;;;;;;;4968256;28;20032;-83
2023/10/16 07:40:37;;;;;;;6.95;3.88;;;;;;;;;;4964925;28;20110;-83
2023/10/16 07:43:29;;;;;;;5.15;3.20;;;;;;;;;;4938960;29;20038;-83
2023/10/16 07:46:30;;;;;;;6.40;3.88;;;;;;;;;;4957681;29;20031;-84
2023/10/16 07:49:15;;;;;;;6.07;3.22;;;;;;;;;;4964876;28;20027;-84
2023/10/16 07:52:05;;;;;;;8.32;3.88;;;;;;;;;;4971521;29;20062;-84
2023/10/16 07:54:51;;;;;;;6.28;3.70;;;;;;;;;;4987172;28;20039;-84
2023/10/16 07:57:36;;;;;;;7.28;3.90;;;;;;;;;;4972350;29;20070;-83
2023/10/16 08:00:26;;;;;;;7.20;4.15;;;;;;;;;;4974913;28;20121;-83
2023/10/16 08:03:14;;;;;;;5.70;3.70;;;;;;;;;;4994194;28;20027;-84
2023/10/16 08:06:04;;;;;;;6.60;3.83;;;;;;;;;;4968964;29;20456;-83
2023/10/16 08:08:49;;;;;;;7.22;3.60;;;;;;;;;;4968945;28;20090;-84
2023/10/16 08:11:35;;;;;;;5.82;3.40;;;;;;;;;;4970606;29;20015;-84
2023/10/16 08:14:20;;;;;;;6.53;3.83;;;;;;;;;;4971311;29;20020;-82
2023/10/16 08:17:05;;;;;;;6.93;3.45;;;;;;;;;;4967041;29;20115;-83
2023/10/16 08:19:51;;;;;;;6.13;3.75;;;;;;;;;;4959893;29;20038;-82
2023/10/16 08:22:36;;;;;;;5.82;3.60;;;;;;;;;;4961430;29;20035;-81
2023/10/16 08:25:30;;;;;;;8.60;4.57;;;;;;;;;;4964982;28;20549;-81
2023/10/16 08:28:24;;;;;;;7.93;4.75;;;;;;;;;;4963652;29;20019;-81
2023/10/16 08:31:25;;;;;;;7.30;4.53;;;;;;;;;;4966686;29;20019;-81
2023/10/16 08:34:19;;;;;;;6.90;4.32;;;;;;;;;;4945302;29;20442;-82
2023/10/16 08:37:04;;;;;;;8.90;4.47;;;;;;;;;;4955911;28;20081;-82
2023/10/16 08:39:50;;;;;;;9.90;4.70;;;;;;;;;;4952665;28;20107;-82
2023/10/16 08:42:36;;;;;;;6.72;3.85;;;;;;;;;;4944516;29;20058;-82
2023/10/16 08:45:24;;;;;;;8.98;4.20;;;;;;;;;;4960201;28;20023;-81
2023/10/16 08:48:10;;;;;;;8.02;3.90;;;;;;;;;;4952123;29;20098;-83
2023/10/16 08:50:58;;;;;;;7.38;3.65;;;;;;;;;;4950417;29;20031;-81
2023/10/16 08:53:47;;;;;;;8.48;3.70;;;;;;;;;;4954570;28;20037;-84
2023/10/16 08:56:32;;;;;;;7.25;3.60;;;;;;;;;;4953338;29;20031;-82
2023/10/16 08:59:18;;;;;;;9.98;4.15;;;;;;;;;;4950014;28;20132;-83
2023/10/16 09:02:06;;;;;;;8.18;3.60;;;;;;;;;;4952219;29;20046;-82
2023/10/16 09:04:55;;;;;;;9.02;3.83;;;;;;;;;;4976886;28;20090;-83
2023/10/16 09:07:41;;;;;;;7.82;4.07;;;;;;;;;;4951654;28;20594;-83
2023/10/16 09:10:30;;;;;;;6.25;2.95;;;;;;;;;;4952209;29;20694;-84
2023/10/16 09:13:18;;;;;;;7.50;3.50;;;;;;;;;;4951885;29;20528;-83
2023/10/16 09:16:11;;;;;;;12.07;3.90;;;;;;;;;;4965201;28;20019;-83
2023/10/16 09:18:58;;;;;;;10.30;3.67;;;;;;;;;;4950570;29;20050;-83
2023/10/16 09:21:52;;;;;;;6.82;3.67;;;;;;;;;;4951446;29;20041;-83
2023/10/16 09:24:38;;;;;;;5.70;3.47;;;;;;;;;;4958332;28;20038;-83
2023/10/16 09:27:30;;;;;;;5.68;2.40;;;;;;;;;;4955950;28;20060;-83
2023/10/16 09:30:15;;;;;;;4.93;2.80;;;;;;;;;;4950546;29;20035;-84
2023/10/16 09:33:00;;;;;;;8.30;3.05;;;;;;;;;;4966220;28;20047;-82
2023/10/16 09:35:45;;;;;;;5.55;2.72;;;;;;;;;;4951541;29;20027;-81
2023/10/16 09:38:33;;;;;;;5.32;2.80;;;;;;;;;;4952380;28;20102;-84
2023/10/16 09:44:31;;;;;;;4.70;2.20;;;;;;;;;;4940670;29;20023;-84
2023/10/16 09:47:25;;;;;;;5.50;2.38;;;;;;;;;;4951154;29;20026;-82
2023/10/16 09:50:16;;;;;;;4.70;2.80;;;;;;;;;;4949900;29;20055;-82
2023/10/16 09:53:02;;;;;;;4.88;2.40;;;;;;;;;;4952122;28;20066;-85
2023/10/16 09:55:49;;;;;;;3.50;2.40;;;;;;;;;;4943179;29;20026;-83
2023/10/16 09:58:34;;;;;;;10.65;2.90;;;;;;;;;;4946435;29;20023;-82
2023/10/16 10:01:28;;;;;;;7.70;3.13;;;;;;;;;;4951761;28;20034;-84
2023/10/16 10:04:14;;;;;;;4.22;2.83;;;;;;;;;;4954810;28;20038;-83
2023/10/16 10:07:11;;;;;;;9.52;3.55;;;;;;;;;;4955991;28;20519;-84
2023/10/16 10:09:57;;;;;;;7.22;3.25;;;;;;;;;;4946652;28;20505;-84
2023/10/16 10:12:47;;;;;;;6.68;3.00;;;;;;;;;;4937044;29;20023;-85
2023/10/16 10:15:35;;;;;;;7.07;3.45;;;;;;;;;;4963987;28;20026;-84
2023/10/16 10:18:35;;;;;;;6.28;3.45;;;;;;;;;;4936624;29;20505;-85
2023/10/16 10:21:30;;;;;;;8.55;3.80;;;;;;;;;;4949277;29;20050;-85
2023/10/16 10:24:15;;;;;;;5.63;2.85;;;;;;;;;;4965693;28;20106;-84
2023/10/16 10:27:04;;;;;;;10.13;3.28;;;;;;;;;;4948506;29;20481;-84
2023/10/16 10:29:55;;;;;;;6.27;2.60;;;;;;;;;;4960658;28;20121;-84
2023/10/16 10:32:40;;;;;;;9.55;3.35;;;;;;;;;;4951609;29;20063;-85
2023/10/16 10:35:30;;;;;;;7.28;2.83;;;;;;;;;;4950856;29;20037;-85
2023/10/16 10:38:29;;;;;;;5.80;2.97;;;;;;;;;;4949831;29;20055;-85
2023/10/16 10:41:15;;;;;;;4.25;2.25;;;;;;;;;;4944286;28;20661;-85
2023/10/16 10:44:08;;;;;;;6.93;3.15;;;;;;;;;;4938260;29;20489;-82
2023/10/16 10:46:54;;;;;;;7.10;2.60;;;;;;;;;;4950293;29;20058;-84
2023/10/16 10:49:39;;;;;;;5.57;2.20;;;;;;;;;;4951343;28;20493;-84
2023/10/16 10:52:26;;;;;;;6.50;2.40;;;;;;;;;;4954357;29;20509;-84
2023/10/16 10:55:18;;;;;;;4.65;2.28;;;;;;;;;;4951962;28;20031;-83
2023/10/16 10:58:11;;;;;;;4.95;2.33;;;;;;;;;;4959980;28;20397;-87
2023/10/16 11:01:05;;;;;;;7.60;2.95;;;;;;;;;;4956787;29;20074;-83
2023/10/16 11:03:53;;;;;;;5.65;2.58;;;;;;;;;;4961038;28;20477;-83
2023/10/16 11:06:53;;;;;;;5.80;3.05;;;;;;;;;;4949646;29;20348;-83
2023/10/16 11:09:39;;;;;;;4.00;2.67;;;;;;;;;;4965509;28;20481;-83
2023/10/16 11:12:24;;;;;;;4.53;2.20;;;;;;;;;;4948387;29;20065;-83
2023/10/16 11:15:10;;;;;;;4.60;2.00;;;;;;;;;;4953123;29;20460;-83
2023/10/16 11:18:05;;;;;;;6.15;1.80;;;;;;;;;;4953470;29;20047;-83
2023/10/16 11:20:54;;;;;;;3.17;1.98;;;;;;;;;;4965341;28;20016;-84
2023/10/16 11:23:40;;;;;;;2.95;1.38;;;;;;;;;;4954799;29;20067;-85
2023/10/16 11:26:28;;;;;;;9.73;1.80;;;;;;;;;;4952198;29;20039;-85
2023/10/16 11:29:13;;;;;;;3.15;1.73;;;;;;;;;;4953331;29;20027;-86
2023/10/16 11:32:06;;;;;;;3.60;1.77;;;;;;;;;;4951988;29;20474;-85
2023/10/16 11:35:12;;;;;;;7.05;1.95;;;;;;;;;;4967339;28;20035;-85
2023/10/16 11:38:12;;;;;;;2.35;1.75;;;;;;;;;;4961468;28;20082;-85
2023/10/16 11:41:04;;;;;;;3.88;1.52;;;;;;;;;;4946156;29;20027;-84
2023/10/16 11:43:54;;;;;;;7.05;1.63;;;;;;;;;;4940084;29;20509;-85
2023/10/16 11:46:46;;;;;;;3.03;1.38;;;;;;;;;;4953033;29;20031;-85
2023/10/16 11:49:35;;;;;;;4.50;2.20;;;;;;;;;;4957529;28;20131;-84
2023/10/16 11:52:22;;;;;;;4.30;1.40;;;;;;;;;;4952770;28;20050;-86
2023/10/16 11:55:08;;;;;;;3.40;1.38;;;;;;;;;;4955263;28;20043;-85
2023/10/16 11:57:56;;;;;;;3.90;1.42;;;;;;;;;;4944344;29;20046;-85
2023/10/16 12:00:53;;;;;;;7.05;2.55;;;;;;;;;;4952106;28;20033;-86
2023/10/16 12:03:39;;;;;;;2.38;1.30;;;;;;;;;;4972168;28;20109;-84
2023/10/16 12:06:24;;;;;;;4.07;1.77;;;;;;;;;;4947514;29;20027;-85
2023/10/16 12:09:13;;;;;;;4.00;1.70;;;;;;;;;;4952771;29;20550;-84
2023/10/16 12:11:58;;;;;;;3.43;1.60;;;;;;;;;;4951932;29;20110;-84
2023/10/16 12:14:43;;;;;;;3.17;1.55;;;;;;;;;;4967063;28;20289;-84
2023/10/16 12:17:29;;;;;;;3.47;1.70;;;;;;;;;;4938344;29;20134;-84
2023/10/16 12:20:16;;;;;;;6.25;2.15;;;;;;;;;;4942164;29;20413;-85
2023/10/16 12:23:03;;;;;;;1.83;1.25;;;;;;;;;;4952538;29;20037;-85
2023/10/16 12:25:49;;;;;;;3.88;1.42;;;;;;;;;;4955224;28;20027;-85
2023/10/16 12:28:34;;;;;;;2.17;1.50;;;;;;;;;;4939749;29;20054;-86
2023/10/16 12:31:19;;;;;;;3.63;1.48;;;;;;;;;;4952101;29;20027;-85
2023/10/16 12:34:05;;;;;;;2.63;1.70;;;;;;;;;;4952216;29;20125;-83
2023/10/16 12:36:50;;;;;;;2.35;1.40;;;;;;;;;;4963852;28;20170;-84
2023/10/16 12:39:45;;;;;;;5.65;1.50;;;;;;;;;;4966309;28;20031;-84
2023/10/16 12:42:30;;;;;;;3.33;1.70;;;;;;;;;;4964641;28;20042;-85
2023/10/16 12:45:15;;;;;;;8.88;2.10;;;;;;;;;;4953296;29;20390;-86
2023/10/16 12:48:00;;;;;;;2.58;1.50;;;;;;;;;;4951886;29;20031;-85
2023/10/16 12:50:47;;;;;;;2.58;1.73;;;;;;;;;;4941391;29;20034;-84
2023/10/16 12:53:32;;;;;;;2.38;1.60;;;;;;;;;;4952595;29;20162;-84
2023/10/16 12:56:20;;;;;;;4.35;1.98;;;;;;;;;;4951966;28;20027;-85
2023/10/16 12:59:08;;;;;;;3.35;2.00;;;;;;;;;;4950810;29;20031;-84
2023/10/16 13:01:53;;;;;;;3.25;1.75;;;;;;;;;;4952572;29;20110;-86
2023/10/16 13:04:39;;;;;;;3.72;1.77;;;;;;;;;;4939224;29;20035;-85
2023/10/16 13:07:26;;;;;;;2.05;1.35;;;;;;;;;;4955016;28;20185;-85
2023/10/16 13:10:16;;;;;;;4.07;1.40;;;;;;;;;;4950194;29;20035;-85
2023/10/16 13:13:04;;;;;;;2.80;1.42;;;;;;;;;;4949849;28;20058;-85
2023/10/16 13:15:52;;;;;;;2.53;1.65;;;;;;;;;;4952093;28;20023;-85
2023/10/16 13:18:37;;;;;;;2.47;1.60;;;;;;;;;;4939307;28;20463;-84
2023/10/16 13:21:38;;;;;;;4.15;1.77;;;;;;;;;;4920055;29;20050;-84
2023/10/16 13:24:23;;;;;;;4.93;1.95;;;;;;;;;;4933742;29;20031;-82
2023/10/16 13:27:08;;;;;;;3.28;1.50;;;;;;;;;;4916411;29;20024;-84
2023/10/16 13:29:54;;;;;;;5.78;1.90;;;;;;;;;;4917734;29;20090;-85
2023/10/16 13:32:41;;;;;;;3.40;2.10;;;;;;;;;;4905697;29;20447;-84
2023/10/16 13:35:26;;;;;;;3.50;1.50;;;;;;;;;;4909109;29;20764;-85
2023/10/16 13:38:11;;;;;;;2.22;1.55;;;;;;;;;;4920316;29;20027;-85
2023/10/16 13:40:57;;;;;;;4.30;1.50;;;;;;;;;;4919015;29;20126;-84
2023/10/16 13:43:43;;;;;;;2.45;1.35;;;;;;;;;;4920014;29;20035;-84
2023/10/16 13:46:29;;;;;;;5.88;1.70;;;;;;;;;;4923485;29;20362;-85
2023/10/16 13:49:16;;;;;;;4.35;2.10;;;;;;;;;;4908181;29;20433;-85
2023/10/16 13:52:01;;;;;;;3.00;1.75;;;;;;;;;;4928889;29;20035;-84
2023/10/16 13:54:50;;;;;;;3.78;1.88;;;;;;;;;;4918991;29;20023;-86
2023/10/16 13:57:36;;;;;;;3.67;1.50;;;;;;;;;;4917400;29;20027;-86
2023/10/16 14:00:35;;;;;;;2.63;1.38;;;;;;;;;;4918579;29;20063;-85
2023/10/16 14:03:21;;;;;;;4.32;1.92;;;;;;;;;;4951914;28;20039;-84
2023/10/16 14:06:12;;;;;;;6.60;2.67;;;;;;;;;;4925158;29;20438;-86
2023/10/16 14:09:03;;;;;;;3.42;2.00;;;;;;;;;;4925663;29;20032;-89
2023/10/16 14:11:48;;;;;;;4.70;2.20;;;;;;;;;;4922747;29;20069;-88
2023/10/16 14:14:34;;;;;;;2.53;1.88;;;;;;;;;;4921036;29;20054;-86
2023/10/16 14:17:20;;;;;;;2.92;1.50;;;;;;;;;;4933422;29;20047;-86
2023/10/16 14:20:11;;;;;;;4.03;2.03;;;;;;;;;;4939391;29;20031;-84
2023/10/16 14:22:59;;;;;;;3.83;1.63;;;;;;;;;;4938381;29;20042;-85
2023/10/16 14:26:00;;;;;;;3.08;1.73;;;;;;;;;;4933081;29;20082;-84
2023/10/16 14:28:46;;;;;;;3.70;1.88;;;;;;;;;;4938812;29;20461;-86
2023/10/16 14:31:33;;;;;;;4.30;1.90;;;;;;;;;;4937273;29;20058;-84
2023/10/16 14:34:27;;;;;;;3.35;1.70;;;;;;;;;;4938468;29;20372;-87
2023/10/16 14:37:13;;;;;;;2.55;1.25;;;;;;;;;;4936283;29;20126;-85
2023/10/16 14:39:59;;;;;;;1.58;1.15;;;;;;;;;;4935241;29;20425;-83
2023/10/16 14:42:44;;;;;;;3.38;1.20;;;;;;;;;;4939085;29;20034;-84
2023/10/16 14:45:32;;;;;;;3.03;1.30;;;;;;;;;;4938343;29;20269;-83
2023/10/16 14:48:18;;;;;;;3.22;1.48;;;;;;;;;;4923670;29;20031;-84
2023/10/16 14:51:07;;;;;;;6.13;1.20;;;;;;;;;;4938485;29;20066;-84
2023/10/16 14:53:55;;;;;;;2.60;1.33;;;;;;;;;;4938019;29;20015;-84
2023/10/16 14:56:44;;;;;;;4.57;1.60;;;;;;;;;;4931484;29;20031;-85
2023/10/16 14:59:32;;;;;;;2.00;1.30;;;;;;;;;;4945800;29;20035;-86
2023/10/16 15:02:22;;;;;;;2.25;1.40;;;;;;;;;;4941944;29;20244;-85
2023/10/16 15:05:08;;;;;;;5.82;2.55;;;;;;;;;;4934583;29;20031;-86
2023/10/16 15:07:57;;;;;;;3.70;1.27;;;;;;;;;;4944517;29;20084;-86
2023/10/16 15:10:43;;;;;;;3.97;1.75;;;;;;;;;;4950014;29;20178;-85
2023/10/16 15:13:28;;;;;;;4.47;1.67;;;;;;;;;;4959608;29;20058;-86
2023/10/16 15:16:13;;;;;;;4.85;1.55;;;;;;;;;;4956983;29;20031;-86
2023/10/16 15:19:00;;;;;;;3.20;1.42;;;;;;;;;;4940429;29;20040;-84
2023/10/16 15:21:45;;;;;;;3.45;1.70;;;;;;;;;;4945850;28;20074;-86
2023/10/16 15:24:31;;;;;;;3.85;1.35;;;;;;;;;;4939216;29;20047;-87
2023/10/16 15:27:16;;;;;;;2.08;1.63;;;;;;;;;;4927699;29;20023;-85
2023/10/16 15:30:02;;;;;;;2.03;1.52;;;;;;;;;;4947014;29;20054;-84
2023/10/16 15:32:47;;;;;;;2.20;1.40;;;;;;;;;;4938522;29;20106;-85
2023/10/16 15:35:33;;;;;;;4.50;1.95;;;;;;;;;;4940556;28;20030;-85
2023/10/16 15:38:23;;;;;;;2.08;1.45;;;;;;;;;;4955807;29;20019;-84
2023/10/16 15:41:09;;;;;;;2.97;1.63;;;;;;;;;;4981317;28;20062;-85
2023/10/16 15:43:55;;;;;;;2.15;1.40;;;;;;;;;;4965674;29;20011;-90
2023/10/16 15:46:40;;;;;;;2.80;1.77;;;;;;;;;;4963467;29;20113;-86
2023/10/16 15:49:25;;;;;;;4.55;1.67;;;;;;;;;;4946401;29;20027;-84
2023/10/16 15:52:10;;;;;;;4.43;1.60;;;;;;;;;;4944970;29;20035;-84
2023/10/16 15:54:56;;;;;;;4.53;1.73;;;;;;;;;;4943809;29;20019;-84
2023/10/16 15:57:41;;;;;;;3.20;1.70;;;;;;;;;;4940701;29;20027;-83
2023/10/16 16:00:28;;;;;;;3.67;1.38;;;;;;;;;;4939142;29;20035;-84
2023/10/16 16:03:14;;;;;;;5.35;1.30;;;;;;;;;;4942212;29;20043;-88
2023/10/16 16:06:00;;;;;;;1.17;1.08;;;;;;;;;;4955518;29;20038;-88
2023/10/16 16:08:45;;;;;;;2.45;1.65;;;;;;;;;;4937058;29;20091;-88
2023/10/16 16:11:31;;;;;;;3.92;1.90;;;;;;;;;;4934918;29;20087;-91
2023/10/16 16:14:17;;;;;;;2.25;1.40;;;;;;;;;;4940084;29;20038;-86
2023/10/16 16:17:02;;;;;;;3.63;1.77;;;;;;;;;;4939157;29;20039;-85
2023/10/16 16:19:47;;;;;;;2.25;1.40;;;;;;;;;;4955271;28;20027;-86
2023/10/16 16:22:33;;;;;;;3.08;1.40;;;;;;;;;;4954633;28;20058;-91
2023/10/16 16:25:20;;;;;;;2.40;1.25;;;;;;;;;;4940166;29;20016;-84
2023/10/16 16:28:06;;;;;;;3.13;1.40;;;;;;;;;;4948445;29;20470;-83
2023/10/16 16:30:51;;;;;;;4.20;1.40;;;;;;;;;;4964433;28;20225;-84
2023/10/16 16:33:36;;;;;;;1.77;0.98;;;;;;;;;;4953945;28;20011;-86
2023/10/16 16:36:22;;;;;;;3.30;1.42;;;;;;;;;;4966621;28;20556;-84
2023/10/16 16:39:12;;;;;;;2.25;1.30;;;;;;;;;;4965960;28;20027;-84
2023/10/16 16:41:59;;;;;;;3.95;1.42;;;;;;;;;;4942538;29;20038;-83
2023/10/16 16:44:45;;;;;;;5.28;1.95;;;;;;;;;;4952323;29;20035;-86
2023/10/16 16:47:30;;;;;;;2.33;1.55;;;;;;;;;;4960062;28;20039;-83
2023/10/16 16:50:17;;;;;;;4.63;1.33;;;;;;;;;;4951053;29;20030;-84
2023/10/16 16:53:03;;;;;;;2.45;1.40;;;;;;;;;;4957809;28;20106;-83
2023/10/16 16:55:48;;;;;;;3.17;1.20;;;;;;;;;;4945601;29;20086;-84
2023/10/16 16:58:33;;;;;;;4.38;1.60;;;;;;;;;;4975573;28;20030;-85
2023/10/16 17:01:19;;;;;;;2.42;1.63;;;;;;;;;;4953255;29;20525;-80
2023/10/16 17:04:04;;;;;;;5.70;1.98;;;;;;;;;;4947333;28;20039;-81
2023/10/16 17:06:49;;;;;;;2.03;1.27;;;;;;;;;;4955933;28;20562;-81
2023/10/16 17:09:35;;;;;;;2.15;1.10;;;;;;;;;;4951188;29;20113;-81
2023/10/16 17:12:20;;;;;;;2.65;1.10;;;;;;;;;;4949150;28;20497;-82
2023/10/16 17:15:16;;;;;;;3.17;1.25;;;;;;;;;;4946000;29;20118;-80
2023/10/16 17:18:02;;;;;;;2.70;1.23;;;;;;;;;;4936837;28;20046;-81
2023/10/16 17:20:47;;;;;;;4.68;1.42;;;;;;;;;;4962672;28;20035;-81
2023/10/16 17:23:33;;;;;;;2.92;1.10;;;;;;;;;;4945689;28;20033;-81
2023/10/16 17:26:20;;;;;;;1.98;1.20;;;;;;;;;;4950235;28;20411;-81
2023/10/16 17:29:07;;;;;;;3.85;1.15;;;;;;;;;;4953144;28;20039;-80
2023/10/16 17:31:55;;;;;;;3.28;1.35;;;;;;;;;;4951510;29;20400;-81
2023/10/16 17:34:40;;;;;;;1.95;1.10;;;;;;;;;;4962357;28;20039;-81
2023/10/16 17:37:25;;;;;;;2.45;1.05;;;;;;;;;;4949162;28;20027;-83
2023/10/16 17:40:11;;;;;;;4.50;1.30;;;;;;;;;;4950603;29;20583;-83
2023/10/16 17:42:56;;;;;;;2.78;1.60;;;;;;;;;;4943352;28;20389;-80
2023/10/16 17:45:42;;;;;;;4.13;1.63;;;;;;;;;;4953472;28;20041;-80
2023/10/16 17:48:28;;;;;;;2.55;1.40;;;;;;;;;;4951698;28;20047;-80
2023/10/16 17:51:14;;;;;;;4.38;1.70;;;;;;;;;;4951322;29;20121;-80
2023/10/16 17:53:59;;;;;;;2.80;1.65;;;;;;;;;;4949616;28;20497;-79
2023/10/16 17:56:45;;;;;;;5.45;2.28;;;;;;;;;;4955009;28;20506;-79
2023/10/16 17:59:31;;;;;;;3.47;1.63;;;;;;;;;;4952832;28;20291;-79
2023/10/16 18:02:17;;;;;;;3.72;1.35;;;;;;;;;;4950277;29;20117;-80
2023/10/16 18:05:04;;;;;;;2.95;1.30;;;;;;;;;;4952190;28;20122;-79
2023/10/16 18:07:50;;;;;;;4.78;1.38;;;;;;;;;;4952971;28;20031;-80
2023/10/16 18:10:42;;;;;;;3.30;1.38;;;;;;;;;;4951133;28;20079;-81
2023/10/16 18:13:27;;;;;;;5.45;1.88;;;;;;;;;;4960031;28;20276;-81